createdAt,value
2019-04-22T00:02:17.498Z,3.92
2019-04-22T00:05:01.083Z,4.00
2019-04-22T00:07:48.921Z,3.72
2019-04-22T00:10:19.322Z,4.03
2019-04-22T00:12:57.891Z,3.47
2019-04-22T00:15:21.457Z,3.90
2019-04-22T00:18:03.325Z,3.30
2019-04-22T00:20:30.838Z,3.60
2019-04-22T00:22:58.894Z,3.52
2019-04-22T00:25:34.398Z,3.50
2019-04-22T00:28:08.446Z,3.33
2019-04-22T00:30:35.981Z,3.58
2019-04-22T00:33:31.243Z,3.70
2019-04-22T00:36:04.322Z,3.60
2019-04-22T00:38:38.665Z,3.50
2019-04-22T00:41:05.804Z,3.22
2019-04-22T00:43:39.590Z,2.98
2019-04-22T00:46:11.414Z,3.52
2019-04-22T00:48:50.758Z,3.20
2019-04-22T00:51:16.862Z,3.27
2019-04-22T00:53:48.186Z,3.02
2019-04-22T00:56:20.175Z,3.80
2019-04-22T00:58:46.687Z,3.30
2019-04-22T01:01:20.420Z,3.62
2019-04-22T01:03:55.880Z,3.67
2019-04-22T01:09:00.423Z,3.35
2019-04-22T01:11:38.848Z,3.30
2019-04-22T01:13:55.675Z,3.40
2019-04-22T01:16:28.063Z,3.37
2019-04-22T01:19:07.832Z,3.27
2019-04-22T01:21:41.005Z,3.87
2019-04-22T01:24:12.143Z,3.20
2019-04-22T01:26:34.618Z,3.62
2019-04-22T01:29:05.014Z,3.35
2019-04-22T01:31:30.477Z,3.40
2019-04-22T01:34:10.289Z,3.80
2019-04-22T01:36:48.672Z,3.45
2019-04-22T01:39:21.530Z,3.42
2019-04-22T01:42:12.179Z,3.87
2019-04-22T01:44:33.115Z,3.98
2019-04-22T01:47:08.130Z,3.83
2019-04-22T01:49:38.386Z,3.52
2019-04-22T01:52:09.121Z,3.87
2019-04-22T01:54:45.481Z,4.45
2019-04-22T01:57:09.925Z,3.72
2019-04-22T01:59:36.790Z,4.40
2019-04-22T02:02:19.050Z,4.55
2019-04-22T02:04:53.170Z,4.10
2019-04-22T02:07:16.734Z,4.90
2019-04-22T02:09:51.958Z,4.72
2019-04-22T02:12:19.983Z,4.50
2019-04-22T02:14:52.273Z,4.28
2019-04-22T02:17:26.709Z,4.42
2019-04-22T02:19:57.557Z,4.92
2019-04-22T02:22:42.960Z,5.20
2019-04-22T02:25:06.753Z,5.58
2019-04-22T02:27:39.034Z,5.55
2019-04-22T02:29:58.468Z,5.78
2019-04-22T02:35:11.271Z,6.20
2019-04-22T02:37:36.010Z,6.83
2019-04-22T02:42:43.969Z,6.47
2019-04-22T02:45:18.465Z,6.08
2019-04-22T02:47:52.937Z,6.47
2019-04-22T02:50:19.237Z,5.97
2019-04-22T02:53:13.848Z,6.92
2019-04-22T02:55:23.533Z,6.45
2019-04-22T02:58:16.504Z,7.03
2019-04-22T03:00:35.450Z,6.42
2019-04-22T03:03:11.074Z,6.70
2019-04-22T03:05:36.530Z,6.22
2019-04-22T03:08:10.694Z,6.00
2019-04-22T03:10:49.098Z,5.72
2019-04-22T03:13:21.415Z,5.78
2019-04-22T03:15:52.519Z,6.50
2019-04-22T03:18:19.466Z,5.65
2019-04-22T03:20:53.413Z,6.05
2019-04-22T03:23:25.470Z,5.42
2019-04-22T03:28:29.210Z,5.15
2019-04-22T03:31:40.369Z,5.03
2019-04-22T03:34:22.751Z,5.42
2019-04-22T03:36:58.123Z,4.80
2019-04-22T03:39:19.737Z,5.50
2019-04-22T03:41:46.142Z,5.33
2019-04-22T03:44:10.194Z,5.05
2019-04-22T03:46:30.379Z,5.70
2019-04-22T03:49:09.367Z,4.87
2019-04-22T03:54:17.491Z,5.47
2019-04-22T03:57:07.692Z,6.17
2019-04-22T03:59:19.327Z,5.55
2019-04-22T04:01:50.959Z,5.07
2019-04-22T04:04:18.630Z,4.72
2019-04-22T04:07:06.053Z,5.10
2019-04-22T04:09:27.442Z,4.53
2019-04-22T04:14:30.205Z,4.30
2019-04-22T04:16:56.401Z,3.85
2019-04-22T04:19:34.934Z,4.55
2019-04-22T04:21:48.481Z,4.60
2019-04-22T04:29:50.739Z,5.10
2019-04-22T04:35:05.345Z,4.30
2019-04-22T04:37:25.192Z,4.90
2019-04-22T04:39:44.080Z,4.78
2019-04-22T04:44:59.294Z,4.58
2019-04-22T04:49:52.473Z,4.65
2019-04-22T04:55:00.587Z,4.58
2019-04-22T04:57:26.285Z,4.80
2019-04-22T05:00:32.698Z,4.60
2019-04-22T05:02:35.228Z,5.47
2019-04-22T05:07:36.100Z,4.70
2019-04-22T05:09:59.721Z,6.25
2019-04-22T05:12:53.134Z,5.15
2019-04-22T05:15:04.229Z,4.65
2019-04-22T05:17:40.443Z,4.35
2019-04-22T05:20:06.143Z,4.22
2019-04-22T05:22:35.718Z,4.15
2019-04-22T05:25:09.957Z,5.25
2019-04-22T05:30:23.602Z,5.62
2019-04-22T05:32:38.519Z,5.92
2019-04-22T05:37:41.553Z,7.50
2019-04-22T05:42:44.195Z,7.62
2019-04-22T05:45:17.384Z,8.45
2019-04-22T05:50:19.058Z,8.70
2019-04-22T05:53:14.978Z,9.18
2019-04-22T05:55:33.347Z,7.97
2019-04-22T06:03:11.933Z,7.75
2019-04-22T06:05:41.748Z,8.18
2019-04-22T06:08:11.873Z,6.70
2019-04-22T06:10:49.044Z,6.72
2019-04-22T06:13:12.576Z,7.22
2019-04-22T06:15:48.793Z,7.08
2019-04-22T06:18:22.765Z,6.65
2019-04-22T06:26:09.877Z,5.62
2019-04-22T06:28:34.888Z,6.03
2019-04-22T06:31:02.527Z,6.12
2019-04-22T06:33:34.138Z,5.97
2019-04-22T06:36:08.421Z,5.25
2019-04-22T06:38:39.187Z,5.83
2019-04-22T06:41:16.425Z,6.33
2019-04-22T06:43:44.620Z,6.08
2019-04-22T06:46:17.190Z,5.55
2019-04-22T06:48:44.706Z,5.92
2019-04-22T06:51:19.777Z,6.12
2019-04-22T06:54:03.261Z,5.92
2019-04-22T06:56:35.231Z,6.12
2019-04-22T06:59:10.107Z,6.03
2019-04-22T07:01:59.398Z,6.37
2019-04-22T07:04:23.309Z,5.63
2019-04-22T07:11:43.341Z,6.65
2019-04-22T07:14:28.335Z,6.42
2019-04-22T07:16:54.288Z,6.55
2019-04-22T07:19:20.655Z,6.12
2019-04-22T07:21:52.399Z,6.05
2019-04-22T07:24:42.087Z,5.95
2019-04-22T07:27:00.592Z,5.92
2019-04-22T07:29:24.892Z,5.53
2019-04-22T07:32:00.546Z,5.40
2019-04-22T07:37:23.069Z,5.30
2019-04-22T07:39:35.575Z,5.33
2019-04-22T07:42:12.621Z,4.70
2019-04-22T07:44:39.900Z,4.62
2019-04-22T07:49:46.913Z,5.45
2019-04-22T07:52:20.687Z,5.40
2019-04-22T07:54:46.789Z,5.75
2019-04-22T07:57:27.806Z,4.97
2019-04-22T07:59:49.095Z,5.78
2019-04-22T08:02:26.034Z,5.70
2019-04-22T08:07:29.970Z,4.50
2019-04-22T08:10:12.505Z,3.87
2019-04-22T08:15:06.089Z,4.22
2019-04-22T08:20:10.744Z,4.03
2019-04-22T08:22:43.089Z,3.98
2019-04-22T08:25:11.264Z,5.03
2019-04-22T08:27:50.470Z,4.60
2019-04-22T08:30:23.421Z,4.65
2019-04-22T08:32:52.930Z,5.13
2019-04-22T08:35:29.381Z,5.00
2019-04-22T08:43:14.128Z,4.83
2019-04-22T08:45:40.145Z,4.60
2019-04-22T08:48:11.080Z,4.97
2019-04-22T08:50:44.285Z,4.17
2019-04-22T08:53:19.953Z,4.72
2019-04-22T08:55:56.800Z,4.85
2019-04-22T08:58:32.866Z,5.58
2019-04-22T09:03:47.059Z,5.80
2019-04-22T09:06:29.895Z,5.85
2019-04-22T09:08:54.078Z,5.62
2019-04-22T09:11:28.424Z,6.90
2019-04-22T09:13:55.760Z,6.70
2019-04-22T09:16:34.750Z,7.17
2019-04-22T09:19:02.594Z,7.78
2019-04-22T09:21:35.900Z,7.97
2019-04-22T09:24:06.923Z,7.33
2019-04-22T09:26:39.113Z,8.18
2019-04-22T09:29:14.571Z,8.55
2019-04-22T09:31:37.505Z,8.90
2019-04-22T09:34:11.963Z,8.23
2019-04-22T09:36:45.849Z,7.67
2019-04-22T09:39:14.202Z,8.20
2019-04-22T09:41:48.289Z,8.50
2019-04-22T09:44:14.779Z,8.10
2019-04-22T09:49:26.777Z,9.55
2019-04-22T09:51:54.133Z,9.65
2019-04-22T09:54:31.907Z,8.80
2019-04-22T09:56:55.026Z,8.68
2019-04-22T09:59:32.411Z,11.60
2019-04-22T10:02:13.347Z,9.58
2019-04-22T10:04:35.027Z,9.98
2019-04-22T10:06:59.721Z,9.18
2019-04-22T10:09:53.190Z,10.40
2019-04-22T10:12:10.170Z,9.18
2019-04-22T10:14:39.593Z,8.53
2019-04-22T10:17:08.057Z,9.08
2019-04-22T10:19:41.121Z,10.60
2019-04-22T10:22:19.327Z,11.12
2019-04-22T10:24:45.339Z,9.85
2019-04-22T10:27:19.036Z,11.38
2019-04-22T10:29:53.711Z,8.60
2019-04-22T10:32:20.583Z,11.43
2019-04-22T10:34:38.860Z,14.05
2019-04-22T10:37:06.400Z,36.23
2019-04-22T10:39:43.941Z,13.00
2019-04-22T10:42:07.065Z,10.18
2019-04-22T10:44:37.364Z,10.58
2019-04-22T10:47:07.445Z,9.55
2019-04-22T10:49:38.300Z,43.38
2019-04-22T10:52:08.747Z,19.30
2019-04-22T10:54:38.736Z,16.65
2019-04-22T10:57:10.844Z,11.38
2019-04-22T10:59:40.870Z,10.68
2019-04-22T11:02:11.635Z,14.47
2019-04-22T11:04:41.785Z,12.05
2019-04-22T11:07:13.562Z,11.28
2019-04-22T11:09:51.788Z,10.50
2019-04-22T11:12:19.258Z,10.78
2019-04-22T11:14:49.670Z,10.32
2019-04-22T11:17:19.833Z,10.55
2019-04-22T11:19:49.962Z,9.83
2019-04-22T11:22:25.785Z,9.63
2019-04-22T11:24:52.895Z,9.13
2019-04-22T11:27:23.399Z,9.50
2019-04-22T11:29:53.418Z,7.80
2019-04-22T11:32:24.382Z,7.53
2019-04-22T11:34:54.381Z,8.13
2019-04-22T11:37:24.906Z,7.53
2019-04-22T11:40:06.826Z,6.62
2019-04-22T11:42:28.040Z,7.10
2019-04-22T11:44:59.245Z,8.13
2019-04-22T11:47:29.699Z,7.58
2019-04-22T11:49:59.849Z,6.70
2019-04-22T11:52:30.964Z,7.75
2019-04-22T11:55:01.206Z,6.85
2019-04-22T11:57:31.217Z,6.95
2019-04-22T12:00:03.059Z,7.92
2019-04-22T12:02:34.081Z,7.03
2019-04-22T12:05:06.108Z,7.12
2019-04-22T12:07:37.055Z,8.33
2019-04-22T12:10:19.209Z,7.15
2019-04-22T12:12:44.070Z,7.25
2019-04-22T12:15:12.798Z,7.10
2019-04-22T12:17:44.467Z,9.65
2019-04-22T12:20:18.406Z,18.95
2019-04-22T12:22:49.155Z,12.00
2019-04-22T12:25:31.879Z,10.15
2019-04-22T12:27:53.031Z,8.85
2019-04-22T12:30:23.659Z,10.32
2019-04-22T12:32:54.679Z,11.95
2019-04-22T12:35:26.165Z,8.85
2019-04-22T12:38:01.472Z,8.50
2019-04-22T12:40:39.453Z,8.38
2019-04-22T12:43:04.150Z,8.30
2019-04-22T12:45:31.974Z,19.62
2019-04-22T12:48:02.177Z,15.72
2019-04-22T12:50:36.683Z,8.88
2019-04-22T12:53:10.394Z,11.35
2019-04-22T12:55:35.621Z,10.05
2019-04-22T12:58:05.622Z,8.83
2019-04-22T13:00:36.700Z,9.38
2019-04-22T13:03:07.318Z,8.13
2019-04-22T13:05:37.633Z,7.60
2019-04-22T13:08:07.684Z,6.95
2019-04-22T13:10:45.650Z,6.67
2019-04-22T13:13:09.777Z,7.08
2019-04-22T13:15:41.317Z,7.75
2019-04-22T13:18:20.819Z,6.92
2019-04-22T13:20:44.304Z,6.78
2019-04-22T13:23:15.723Z,6.75
2019-04-22T13:25:47.053Z,7.35
2019-04-22T13:28:18.910Z,6.90
2019-04-22T13:30:50.549Z,6.87
2019-04-22T13:33:20.986Z,6.58
2019-04-22T13:35:52.143Z,7.55
2019-04-22T13:38:22.761Z,7.30
2019-04-22T13:41:07.310Z,6.97
2019-04-22T13:43:25.386Z,6.87
2019-04-22T13:45:56.134Z,6.20
2019-04-22T13:48:46.941Z,6.97
2019-04-22T13:54:29.523Z,6.55
2019-04-22T13:56:19.333Z,7.35
2019-04-22T13:58:48.545Z,6.90
2019-04-22T14:01:06.978Z,6.65
2019-04-22T14:03:46.970Z,6.80
2019-04-22T14:06:18.506Z,6.83
2019-04-22T14:08:49.464Z,7.80
2019-04-22T14:11:28.270Z,6.75
2019-04-22T14:13:52.123Z,7.62
2019-04-22T14:16:22.765Z,6.78
2019-04-22T14:18:53.918Z,6.12
2019-04-22T14:21:25.073Z,6.42
2019-04-22T14:23:56.407Z,6.03
2019-04-22T14:26:41.322Z,6.33
2019-04-22T14:28:59.979Z,6.22
2019-04-22T14:31:30.781Z,6.17
2019-04-22T14:34:05.196Z,6.22
2019-04-22T14:36:35.274Z,6.45
2019-04-22T14:39:08.147Z,6.35
2019-04-22T14:41:55.504Z,7.12
2019-04-22T14:47:09.204Z,5.92
2019-04-22T14:49:40.648Z,6.20
2019-04-22T14:52:13.298Z,6.67
2019-04-22T14:54:34.553Z,6.62
2019-04-22T14:56:51.996Z,6.20
2019-04-22T14:59:22.900Z,6.12
2019-04-22T15:01:54.097Z,5.95
2019-04-22T15:04:24.202Z,6.10
2019-04-22T15:06:54.794Z,6.17
2019-04-22T15:09:26.077Z,6.05
2019-04-22T15:12:08.719Z,5.78
2019-04-22T15:14:27.941Z,5.55
2019-04-22T15:17:13.118Z,6.47
2019-04-22T15:19:53.944Z,6.42
2019-04-22T15:22:24.657Z,6.55
2019-04-22T15:24:54.669Z,6.30
2019-04-22T15:27:27.391Z,6.05
2019-04-22T15:29:57.100Z,5.87
2019-04-22T15:32:29.494Z,5.47
2019-04-22T15:34:59.692Z,5.78
2019-04-22T15:37:31.116Z,6.70
2019-04-22T15:40:02.691Z,6.12
2019-04-22T15:42:39.334Z,6.05
2019-04-22T15:47:37.745Z,5.95
2019-04-22T15:50:08.085Z,5.58
2019-04-22T15:52:44.486Z,5.50
2019-04-22T15:55:11.399Z,6.12
2019-04-22T15:57:41.998Z,5.12
2019-04-22T16:00:25.102Z,5.70
2019-04-22T16:02:43.848Z,5.87
2019-04-22T16:05:17.127Z,5.60
2019-04-22T16:07:45.896Z,6.00
2019-04-22T16:10:19.806Z,6.08
2019-04-22T16:12:57.520Z,5.00
2019-04-22T16:15:22.488Z,6.37
2019-04-22T16:17:53.111Z,5.40
2019-04-22T16:20:23.387Z,5.97
2019-04-22T16:23:01.454Z,5.87
2019-04-22T16:25:49.480Z,6.00
2019-04-22T16:28:19.578Z,5.33
2019-04-22T16:30:50.968Z,6.12
2019-04-22T16:33:21.664Z,5.45
2019-04-22T16:35:53.158Z,5.58
2019-04-22T16:38:24.604Z,5.67
2019-04-22T16:40:54.822Z,5.65
2019-04-22T16:43:24.919Z,6.10
2019-04-22T16:45:57.930Z,7.12
2019-04-22T16:48:27.461Z,6.42
2019-04-22T16:50:58.480Z,6.53
2019-04-22T16:53:29.471Z,6.85
2019-04-22T16:55:59.645Z,7.35
2019-04-22T16:58:30.513Z,7.25
2019-04-22T17:01:00.748Z,7.12
2019-04-22T17:03:48.814Z,6.37
2019-04-22T17:06:27.640Z,6.65
2019-04-22T17:09:00.505Z,6.70
2019-04-22T17:11:32.230Z,7.22
2019-04-22T17:14:03.457Z,7.00
2019-04-22T17:16:34.528Z,6.80
2019-04-22T17:19:06.002Z,7.42
2019-04-22T17:21:37.369Z,7.78
2019-04-22T17:24:07.798Z,8.00
2019-04-22T17:26:38.758Z,7.60
2019-04-22T17:29:10.258Z,7.50
2019-04-22T17:31:48.542Z,7.80
2019-04-22T17:34:13.653Z,7.75
2019-04-22T17:36:44.692Z,8.25
2019-04-22T17:39:30.248Z,8.30
2019-04-22T17:42:01.920Z,8.05
2019-04-22T17:44:46.554Z,7.45
2019-04-22T17:47:04.947Z,8.18
2019-04-22T17:52:33.365Z,7.28
2019-04-22T17:54:50.513Z,8.28
2019-04-22T17:57:22.410Z,7.60
2019-04-22T17:59:53.486Z,7.72
2019-04-22T18:02:25.260Z,8.45
2019-04-22T18:04:42.893Z,8.18
2019-04-22T18:07:44.445Z,7.83
2019-04-22T18:10:23.466Z,7.97
2019-04-22T18:12:40.064Z,8.23
2019-04-22T18:15:17.764Z,7.87
2019-04-22T18:17:43.591Z,8.28
2019-04-22T18:20:05.791Z,9.15
2019-04-22T18:22:33.059Z,8.80
2019-04-22T18:25:04.728Z,8.45
2019-04-22T18:30:11.012Z,10.10
2019-04-22T18:32:47.148Z,10.13
2019-04-22T18:35:18.520Z,10.18
2019-04-22T18:37:50.045Z,11.95
2019-04-22T18:40:18.554Z,9.63
2019-04-22T18:42:56.732Z,10.15
2019-04-22T18:45:47.277Z,10.55
2019-04-22T18:47:52.793Z,9.65
2019-04-22T18:50:37.007Z,10.20
2019-04-22T18:53:14.261Z,9.15
2019-04-22T18:55:38.767Z,9.55
2019-04-22T18:58:08.515Z,8.05
2019-04-22T19:00:39.663Z,9.33
2019-04-22T19:03:16.541Z,8.55
2019-04-22T19:06:10.672Z,8.38
2019-04-22T19:08:31.659Z,8.90
2019-04-22T19:11:12.720Z,8.08
2019-04-22T19:18:50.137Z,7.77
2019-04-22T19:21:13.426Z,8.25
2019-04-22T19:23:45.278Z,8.33
2019-04-22T19:26:32.498Z,8.48
2019-04-22T19:28:49.699Z,8.35
2019-04-22T19:31:25.066Z,8.13
2019-04-22T19:34:01.628Z,7.80
2019-04-22T19:36:25.967Z,7.95
2019-04-22T19:38:52.683Z,8.65
2019-04-22T19:41:29.462Z,7.47
2019-04-22T19:44:05.564Z,7.85
2019-04-22T19:46:28.035Z,7.12
2019-04-22T19:49:10.559Z,7.58
2019-04-22T19:51:49.290Z,7.00
2019-04-22T19:54:12.653Z,7.12
2019-04-22T19:56:33.626Z,7.45
2019-04-22T19:59:08.777Z,7.28
2019-04-22T20:04:28.134Z,6.78
2019-04-22T20:09:30.181Z,6.92
2019-04-22T20:12:00.708Z,7.05
2019-04-22T20:14:35.917Z,6.72
2019-04-22T20:17:02.649Z,8.08
2019-04-22T20:22:07.561Z,7.20
2019-04-22T20:24:27.723Z,8.18
2019-04-22T20:27:15.248Z,7.58
2019-04-22T20:29:47.867Z,7.80
2019-04-22T20:32:20.248Z,7.67
2019-04-22T20:34:51.225Z,8.13
2019-04-22T20:37:34.326Z,8.43
2019-04-22T20:39:52.927Z,7.10
2019-04-22T20:42:38.694Z,7.40
2019-04-22T20:44:59.957Z,7.97
2019-04-22T20:47:21.678Z,7.67
2019-04-22T20:50:01.620Z,7.92
2019-04-22T20:52:38.830Z,8.78
2019-04-22T20:54:58.869Z,7.97
2019-04-22T20:57:34.991Z,8.03
2019-04-22T21:00:03.744Z,8.23
2019-04-22T21:02:35.465Z,7.85
2019-04-22T21:05:00.122Z,7.17
2019-04-22T21:07:38.460Z,8.13
2019-04-22T21:10:11.555Z,7.55
2019-04-22T21:12:36.383Z,7.97
2019-04-22T21:15:26.286Z,7.90
2019-04-22T21:17:54.152Z,7.10
2019-04-22T21:20:26.210Z,8.23
2019-04-22T21:22:58.242Z,7.53
2019-04-22T21:25:20.606Z,8.35
2019-04-22T21:27:58.229Z,8.00
2019-04-22T21:30:32.382Z,8.58
2019-04-22T21:32:58.001Z,9.60
2019-04-22T21:35:51.415Z,8.93
2019-04-22T21:38:08.412Z,9.70
2019-04-22T21:40:35.534Z,9.10
2019-04-22T21:43:12.211Z,8.83
2019-04-22T21:45:39.202Z,8.68
2019-04-22T21:51:04.538Z,8.75
2019-04-22T21:53:48.847Z,8.90
2019-04-22T21:56:27.289Z,9.10
2019-04-22T21:58:53.177Z,9.18
2019-04-22T22:01:35.601Z,9.73
2019-04-22T22:04:00.284Z,9.23
2019-04-22T22:06:21.805Z,9.15
2019-04-22T22:09:05.915Z,9.13
2019-04-22T22:11:32.973Z,8.30
2019-04-22T22:14:02.683Z,8.88
2019-04-22T22:16:33.544Z,8.80
2019-04-22T22:19:06.688Z,9.40
2019-04-22T22:21:47.963Z,8.90
2019-04-22T22:24:14.790Z,8.73
2019-04-22T22:26:46.234Z,10.15
2019-04-22T22:29:29.368Z,9.00
2019-04-22T22:31:56.069Z,8.98
2019-04-22T22:34:24.935Z,10.53
2019-04-22T22:36:48.104Z,10.03
2019-04-22T22:39:18.822Z,10.32
2019-04-22T22:41:35.969Z,9.80
2019-04-22T22:44:16.436Z,10.88
2019-04-22T22:46:55.859Z,9.65
2019-04-22T22:49:33.406Z,9.25
2019-04-22T22:52:31.441Z,10.63
2019-04-22T22:54:34.956Z,9.60
2019-04-22T22:57:17.451Z,9.25
2019-04-22T22:59:41.084Z,9.33
2019-04-22T23:02:07.829Z,9.63
2019-04-22T23:04:45.501Z,10.50
2019-04-22T23:07:23.966Z,10.72
2019-04-22T23:09:43.777Z,9.60
2019-04-22T23:12:31.268Z,9.28
2019-04-22T23:14:50.022Z,9.13
2019-04-22T23:17:07.781Z,10.38
2019-04-22T23:19:39.828Z,9.28
2019-04-22T23:22:14.516Z,8.25
2019-04-22T23:24:59.916Z,7.83
2019-04-22T23:29:57.600Z,8.65
2019-04-22T23:35:15.149Z,8.95
2019-04-22T23:37:47.912Z,9.30
2019-04-22T23:40:26.010Z,9.85
2019-04-22T23:42:53.049Z,9.63
2019-04-22T23:45:22.584Z,9.45
2019-04-22T23:47:46.433Z,7.55
2019-04-22T23:50:26.642Z,7.55
2019-04-22T23:52:58.858Z,8.30
2019-04-22T23:55:33.208Z,8.25
2019-04-22T23:58:03.496Z,8.63
